N252JR PAJN-PAPG
Flight info
| Callsign | N252JR |
|---|---|
| Flight time | 0h 38m |
| Altitude | 5500 |
| Route | CGL ROVZU ZUHXY R2015 NAYTI XADZY VULHO |
| Aircraft | BE20/L-SBGRY/EB1 |
Departure
| Time | 2026-05-06 14:55 |
|---|---|
| Airport | Juneau International Airport (PAJN) |
Arrival
| Time | 2026-05-06 15:33 |
|---|---|
| Airport | Petersburg James A Johnson Airport (PAPG) |
| Time | Latitude | Longitude | Altitude | Speed | Heading |
|---|---|---|---|---|---|
| 2026-05-06 14:11 | 58.35820 | -134.58169 | 26 ft | 0 kts | 105° |
| 2026-05-06 14:31 | 58.35820 | -134.58168 | 26 ft | 0 kts | 105° |
| 2026-05-06 14:31 | 58.35819 | -134.58168 | 26 ft | 0 kts | 105° |
| 2026-05-06 14:32 | 58.35819 | -134.58167 | 26 ft | 0 kts | 105° |
| 2026-05-06 14:33 | 58.35819 | -134.58166 | 26 ft | 0 kts | 105° |
| 2026-05-06 14:34 | 58.35819 | -134.58165 | 26 ft | 0 kts | 105° |
| 2026-05-06 14:35 | 58.35819 | -134.58164 | 26 ft | 0 kts | 105° |
| 2026-05-06 14:36 | 58.35819 | -134.58163 | 26 ft | 0 kts | 105° |
| 2026-05-06 14:38 | 58.35819 | -134.58162 | 26 ft | 0 kts | 106° |
| 2026-05-06 14:39 | 58.35819 | -134.58161 | 26 ft | 0 kts | 106° |
| 2026-05-06 14:39 | 58.35818 | -134.58161 | 26 ft | 0 kts | 106° |
| 2026-05-06 14:40 | 58.35818 | -134.58160 | 26 ft | 0 kts | 106° |
| 2026-05-06 14:40 | 58.35818 | -134.58159 | 26 ft | 0 kts | 106° |
| 2026-05-06 14:41 | 58.35818 | -134.58158 | 26 ft | 0 kts | 105° |
| 2026-05-06 14:42 | 58.35818 | -134.58157 | 26 ft | 0 kts | 105° |
| 2026-05-06 14:42 | 58.35818 | -134.58156 | 26 ft | 0 kts | 105° |
| 2026-05-06 14:43 | 58.35818 | -134.58155 | 26 ft | 0 kts | 105° |
| 2026-05-06 14:43 | 58.35817 | -134.58154 | 26 ft | 0 kts | 105° |
| 2026-05-06 14:44 | 58.35817 | -134.58153 | 26 ft | 0 kts | 105° |
| 2026-05-06 14:45 | 58.35817 | -134.58152 | 26 ft | 0 kts | 105° |
| 2026-05-06 14:45 | 58.35817 | -134.58151 | 26 ft | 0 kts | 105° |
| 2026-05-06 14:45 | 58.35818 | -134.58160 | 26 ft | 2 kts | 108° |
| 2026-05-06 14:46 | 58.35812 | -134.58167 | 26 ft | 4 kts | 191° |
| 2026-05-06 14:46 | 58.35804 | -134.58176 | 26 ft | 0 kts | 225° |
| 2026-05-06 14:46 | 58.35801 | -134.58181 | 26 ft | 2 kts | 224° |
| 2026-05-06 14:47 | 58.35787 | -134.58212 | 26 ft | 3 kts | 238° |
| 2026-05-06 14:47 | 58.35773 | -134.58255 | 26 ft | 4 kts | 238° |
| 2026-05-06 14:47 | 58.35748 | -134.58305 | 26 ft | 8 kts | 189° |
| 2026-05-06 14:47 | 58.35722 | -134.58424 | 26 ft | 16 kts | 288° |
| 2026-05-06 14:48 | 58.35758 | -134.58666 | 26 ft | 20 kts | 286° |
| 2026-05-06 14:48 | 58.35790 | -134.58902 | 26 ft | 17 kts | 285° |
| 2026-05-06 14:48 | 58.35817 | -134.59093 | 26 ft | 13 kts | 285° |
| 2026-05-06 14:48 | 58.35837 | -134.59238 | 26 ft | 11 kts | 285° |
| 2026-05-06 14:49 | 58.35860 | -134.59403 | 26 ft | 15 kts | 284° |
| 2026-05-06 14:49 | 58.35886 | -134.59599 | 26 ft | 14 kts | 272° |
| 2026-05-06 14:49 | 58.35859 | -134.59693 | 26 ft | 0 kts | 197° |
| 2026-05-06 14:52 | 58.35858 | -134.59694 | 26 ft | 0 kts | 197° |
| 2026-05-06 14:53 | 58.35854 | -134.59696 | 26 ft | 3 kts | 196° |
| 2026-05-06 14:53 | 58.35809 | -134.59706 | 26 ft | 10 kts | 155° |
| 2026-05-06 14:53 | 58.35788 | -134.59651 | 26 ft | 0 kts | 107° |
| 2026-05-06 14:54 | 58.35782 | -134.59615 | 26 ft | 21 kts | 107° |
| 2026-05-06 14:54 | 58.35677 | -134.58936 | 26 ft | 81 kts | 103° |
| 2026-05-06 14:54 | 58.35494 | -134.57628 | 97 ft | 116 kts | 103° |
| 2026-05-06 14:54 | 58.35313 | -134.56111 | 448 ft | 118 kts | 102° |
| 2026-05-06 14:55 | 58.35089 | -134.54557 | 738 ft | 124 kts | 106° |
| 2026-05-06 14:55 | 58.34831 | -134.52979 | 1055 ft | 129 kts | 106° |
| 2026-05-06 14:55 | 58.34564 | -134.51363 | 1616 ft | 122 kts | 111° |
| 2026-05-06 14:55 | 58.34035 | -134.50039 | 2087 ft | 132 kts | 133° |
| 2026-05-06 14:56 | 58.33344 | -134.48793 | 2442 ft | 143 kts | 136° |
| 2026-05-06 14:56 | 58.32594 | -134.47484 | 2783 ft | 149 kts | 137° |
| 2026-05-06 14:56 | 58.31831 | -134.46122 | 3112 ft | 153 kts | 137° |
| 2026-05-06 14:56 | 58.31061 | -134.44700 | 3441 ft | 155 kts | 137° |
| 2026-05-06 14:57 | 58.30289 | -134.43258 | 3768 ft | 157 kts | 136° |
| 2026-05-06 14:57 | 58.29515 | -134.41804 | 4093 ft | 157 kts | 137° |
| 2026-05-06 14:57 | 58.28729 | -134.40332 | 4420 ft | 158 kts | 137° |
| 2026-05-06 14:57 | 58.27949 | -134.38870 | 4746 ft | 158 kts | 136° |
| 2026-05-06 14:58 | 58.27169 | -134.37412 | 5070 ft | 158 kts | 137° |
| 2026-05-06 14:58 | 58.26306 | -134.36106 | 5359 ft | 161 kts | 145° |
| 2026-05-06 14:58 | 58.25367 | -134.34850 | 5476 ft | 170 kts | 147° |
| 2026-05-06 14:58 | 58.24363 | -134.33575 | 5507 ft | 176 kts | 150° |
| 2026-05-06 14:59 | 58.23149 | -134.32602 | 5486 ft | 202 kts | 162° |
| 2026-05-06 14:59 | 58.21744 | -134.31769 | 5512 ft | 220 kts | 165° |
| 2026-05-06 14:59 | 58.20230 | -134.30939 | 5508 ft | 232 kts | 165° |
| 2026-05-06 14:59 | 58.18654 | -134.30099 | 5506 ft | 238 kts | 166° |
| 2026-05-06 15:00 | 58.17054 | -134.29255 | 5506 ft | 239 kts | 166° |
| 2026-05-06 15:00 | 58.15450 | -134.28410 | 5504 ft | 240 kts | 166° |
| 2026-05-06 15:00 | 58.13841 | -134.27542 | 5504 ft | 240 kts | 163° |
| 2026-05-06 15:00 | 58.12278 | -134.26399 | 5510 ft | 241 kts | 158° |
| 2026-05-06 15:01 | 58.10752 | -134.25107 | 5506 ft | 241 kts | 156° |
| 2026-05-06 15:01 | 58.09234 | -134.23731 | 5503 ft | 241 kts | 153° |
| 2026-05-06 15:01 | 58.07897 | -134.21812 | 5512 ft | 242 kts | 139° |
| 2026-05-06 15:01 | 58.06722 | -134.19524 | 5513 ft | 243 kts | 134° |
| 2026-05-06 15:02 | 58.05582 | -134.17156 | 5505 ft | 243 kts | 134° |
| 2026-05-06 15:02 | 58.04428 | -134.14830 | 5508 ft | 243 kts | 136° |
| 2026-05-06 15:02 | 58.03238 | -134.12598 | 5509 ft | 242 kts | 138° |
| 2026-05-06 15:02 | 58.02005 | -134.10413 | 5506 ft | 242 kts | 139° |
| 2026-05-06 15:03 | 58.00753 | -134.08281 | 5504 ft | 242 kts | 140° |
| 2026-05-06 15:03 | 57.99505 | -134.06214 | 5504 ft | 242 kts | 141° |
| 2026-05-06 15:03 | 57.98213 | -134.04113 | 5504 ft | 242 kts | 141° |
| 2026-05-06 15:03 | 57.96936 | -134.02064 | 5504 ft | 242 kts | 141° |
| 2026-05-06 15:04 | 57.95649 | -134.00018 | 5504 ft | 242 kts | 142° |
| 2026-05-06 15:04 | 57.94364 | -133.97986 | 5504 ft | 242 kts | 142° |
| 2026-05-06 15:04 | 57.93088 | -133.95977 | 5504 ft | 242 kts | 142° |
| 2026-05-06 15:04 | 57.91787 | -133.93932 | 5504 ft | 242 kts | 142° |
| 2026-05-06 15:05 | 57.90505 | -133.91924 | 5504 ft | 242 kts | 142° |
| 2026-05-06 15:05 | 57.89194 | -133.89880 | 5504 ft | 242 kts | 142° |
| 2026-05-06 15:05 | 57.87912 | -133.87904 | 5503 ft | 241 kts | 143° |
| 2026-05-06 15:05 | 57.86502 | -133.86208 | 5505 ft | 240 kts | 153° |
| 2026-05-06 15:06 | 57.84992 | -133.84889 | 5505 ft | 239 kts | 159° |
| 2026-05-06 15:06 | 57.83433 | -133.83788 | 5504 ft | 239 kts | 162° |
| 2026-05-06 15:06 | 57.81860 | -133.82812 | 5507 ft | 239 kts | 164° |
| 2026-05-06 15:06 | 57.80268 | -133.81892 | 5506 ft | 239 kts | 165° |
| 2026-05-06 15:07 | 57.78680 | -133.81011 | 5503 ft | 239 kts | 165° |
| 2026-05-06 15:07 | 57.77084 | -133.80147 | 5503 ft | 239 kts | 165° |
| 2026-05-06 15:07 | 57.75488 | -133.79285 | 5504 ft | 239 kts | 165° |
| 2026-05-06 15:07 | 57.73891 | -133.78428 | 5503 ft | 239 kts | 165° |
| 2026-05-06 15:08 | 57.72289 | -133.77573 | 5505 ft | 240 kts | 165° |
| 2026-05-06 15:08 | 57.70677 | -133.76715 | 5503 ft | 241 kts | 165° |
| 2026-05-06 15:08 | 57.69062 | -133.75857 | 5505 ft | 241 kts | 165° |
| 2026-05-06 15:08 | 57.67438 | -133.75044 | 5507 ft | 241 kts | 168° |
| 2026-05-06 15:09 | 57.65796 | -133.74426 | 5510 ft | 241 kts | 171° |
| 2026-05-06 15:09 | 57.64140 | -133.73937 | 5510 ft | 240 kts | 172° |
| 2026-05-06 15:09 | 57.62491 | -133.73532 | 5505 ft | 239 kts | 173° |
| 2026-05-06 15:09 | 57.60840 | -133.73154 | 5504 ft | 238 kts | 173° |
| 2026-05-06 15:10 | 57.59205 | -133.72799 | 5504 ft | 237 kts | 174° |
| 2026-05-06 15:10 | 57.57567 | -133.72457 | 5503 ft | 237 kts | 174° |
| 2026-05-06 15:10 | 57.55925 | -133.72122 | 5504 ft | 237 kts | 174° |
| 2026-05-06 15:10 | 57.54277 | -133.71787 | 5504 ft | 237 kts | 174° |
| 2026-05-06 15:11 | 57.52642 | -133.71453 | 5496 ft | 237 kts | 174° |
| 2026-05-06 15:11 | 57.50998 | -133.71119 | 5473 ft | 238 kts | 174° |
| 2026-05-06 15:11 | 57.49354 | -133.70790 | 5468 ft | 237 kts | 174° |
| 2026-05-06 15:11 | 57.47709 | -133.70462 | 5467 ft | 237 kts | 174° |
| 2026-05-06 15:12 | 57.46068 | -133.70142 | 5467 ft | 237 kts | 174° |
| 2026-05-06 15:12 | 57.44429 | -133.69884 | 5467 ft | 237 kts | 178° |
| 2026-05-06 15:12 | 57.42781 | -133.69990 | 5468 ft | 237 kts | 185° |
| 2026-05-06 15:12 | 57.41150 | -133.70345 | 5467 ft | 237 kts | 188° |
| 2026-05-06 15:13 | 57.39527 | -133.70832 | 5467 ft | 237 kts | 189° |
| 2026-05-06 15:13 | 57.37904 | -133.71385 | 5467 ft | 237 kts | 191° |
| 2026-05-06 15:13 | 57.36283 | -133.71970 | 5467 ft | 237 kts | 191° |
| 2026-05-06 15:13 | 57.34670 | -133.72567 | 5467 ft | 237 kts | 191° |
| 2026-05-06 15:14 | 57.33596 | -133.72967 | 5467 ft | 237 kts | 191° |
| 2026-05-06 15:14 | 57.31446 | -133.73771 | 5467 ft | 237 kts | 191° |
| 2026-05-06 15:14 | 57.29832 | -133.74376 | 5467 ft | 237 kts | 191° |
| 2026-05-06 15:14 | 57.28757 | -133.74775 | 5467 ft | 236 kts | 191° |
| 2026-05-06 15:15 | 57.27145 | -133.75375 | 5467 ft | 237 kts | 191° |
| 2026-05-06 15:15 | 57.25533 | -133.75978 | 5467 ft | 237 kts | 192° |
| 2026-05-06 15:15 | 57.23906 | -133.76587 | 5467 ft | 238 kts | 193° |
| 2026-05-06 15:15 | 57.22285 | -133.77206 | 5466 ft | 239 kts | 193° |
| 2026-05-06 15:16 | 57.20632 | -133.77517 | 5466 ft | 241 kts | 176° |
| 2026-05-06 15:16 | 57.19051 | -133.76544 | 5476 ft | 243 kts | 150° |
| 2026-05-06 15:16 | 57.17840 | -133.74373 | 5481 ft | 245 kts | 125° |
| 2026-05-06 15:16 | 57.17059 | -133.71582 | 5478 ft | 246 kts | 113° |
| 2026-05-06 15:17 | 57.16480 | -133.68625 | 5473 ft | 240 kts | 109° |
| 2026-05-06 15:17 | 57.15968 | -133.65788 | 5464 ft | 229 kts | 109° |
| 2026-05-06 15:17 | 57.15466 | -133.63058 | 5465 ft | 221 kts | 109° |
| 2026-05-06 15:17 | 57.14976 | -133.60396 | 5465 ft | 216 kts | 109° |
| 2026-05-06 15:18 | 57.14495 | -133.57791 | 5465 ft | 213 kts | 109° |
| 2026-05-06 15:18 | 57.14021 | -133.55225 | 5466 ft | 211 kts | 109° |
| 2026-05-06 15:18 | 57.13550 | -133.52671 | 5466 ft | 209 kts | 109° |
| 2026-05-06 15:18 | 57.13085 | -133.50147 | 5465 ft | 208 kts | 109° |
| 2026-05-06 15:19 | 57.12619 | -133.47619 | 5466 ft | 208 kts | 109° |
| 2026-05-06 15:19 | 57.12155 | -133.45105 | 5466 ft | 207 kts | 109° |
| 2026-05-06 15:19 | 57.11694 | -133.42601 | 5467 ft | 207 kts | 109° |
| 2026-05-06 15:19 | 57.11271 | -133.40295 | 5520 ft | 179 kts | 109° |
| 2026-05-06 15:20 | 57.10884 | -133.38182 | 5469 ft | 172 kts | 109° |
| 2026-05-06 15:20 | 57.10497 | -133.36074 | 5470 ft | 177 kts | 109° |
| 2026-05-06 15:20 | 57.10103 | -133.33934 | 5470 ft | 181 kts | 109° |
| 2026-05-06 15:20 | 57.09709 | -133.31792 | 5469 ft | 182 kts | 109° |
| 2026-05-06 15:21 | 57.09301 | -133.29578 | 5468 ft | 183 kts | 109° |
| 2026-05-06 15:21 | 57.08891 | -133.27356 | 5467 ft | 183 kts | 109° |
| 2026-05-06 15:21 | 57.08481 | -133.25136 | 5468 ft | 183 kts | 110° |
| 2026-05-06 15:21 | 57.08071 | -133.22913 | 5436 ft | 185 kts | 109° |
| 2026-05-06 15:22 | 57.07655 | -133.20669 | 5116 ft | 180 kts | 110° |
| 2026-05-06 15:22 | 57.07132 | -133.18686 | 4812 ft | 165 kts | 120° |
| 2026-05-06 15:22 | 57.06560 | -133.16919 | 4512 ft | 158 kts | 122° |
| 2026-05-06 15:22 | 57.05993 | -133.15227 | 4252 ft | 152 kts | 122° |
| 2026-05-06 15:23 | 57.05451 | -133.13617 | 4125 ft | 144 kts | 122° |
| 2026-05-06 15:23 | 57.04945 | -133.12114 | 4089 ft | 135 kts | 122° |
| 2026-05-06 15:23 | 57.04464 | -133.10677 | 4083 ft | 128 kts | 122° |
| 2026-05-06 15:23 | 57.04013 | -133.09327 | 4082 ft | 124 kts | 122° |
| 2026-05-06 15:24 | 57.03540 | -133.07913 | 3923 ft | 133 kts | 122° |
| 2026-05-06 15:24 | 57.03050 | -133.06451 | 3737 ft | 138 kts | 122° |
| 2026-05-06 15:24 | 57.02484 | -133.04974 | 3546 ft | 141 kts | 128° |
| 2026-05-06 15:24 | 57.01884 | -133.03539 | 3347 ft | 142 kts | 128° |
| 2026-05-06 15:25 | 57.01277 | -133.02105 | 3149 ft | 142 kts | 128° |
| 2026-05-06 15:25 | 57.00672 | -133.00673 | 2950 ft | 142 kts | 129° |
| 2026-05-06 15:25 | 57.00072 | -132.99253 | 2752 ft | 143 kts | 129° |
| 2026-05-06 15:25 | 56.99468 | -132.97811 | 2552 ft | 143 kts | 128° |
| 2026-05-06 15:26 | 56.98866 | -132.96374 | 2355 ft | 143 kts | 128° |
| 2026-05-06 15:26 | 56.98218 | -132.94988 | 2153 ft | 142 kts | 137° |
| 2026-05-06 15:26 | 56.97474 | -132.93803 | 1963 ft | 141 kts | 141° |
| 2026-05-06 15:26 | 56.96720 | -132.92654 | 1787 ft | 140 kts | 141° |
| 2026-05-06 15:27 | 56.95987 | -132.91541 | 1707 ft | 134 kts | 141° |
| 2026-05-06 15:27 | 56.95171 | -132.90894 | 1685 ft | 125 kts | 173° |
| 2026-05-06 15:27 | 56.94313 | -132.90801 | 1606 ft | 123 kts | 179° |
| 2026-05-06 15:27 | 56.93509 | -132.90847 | 1392 ft | 114 kts | 186° |
| 2026-05-06 15:28 | 56.92712 | -132.91020 | 1076 ft | 115 kts | 188° |
| 2026-05-06 15:28 | 56.91913 | -132.91196 | 755 ft | 116 kts | 187° |
| 2026-05-06 15:28 | 56.91131 | -132.91360 | 554 ft | 110 kts | 187° |
| 2026-05-06 15:28 | 56.90400 | -132.91506 | 476 ft | 101 kts | 187° |
| 2026-05-06 15:29 | 56.89732 | -132.91636 | 464 ft | 93 kts | 187° |
| 2026-05-06 15:29 | 56.89096 | -132.91757 | 489 ft | 96 kts | 187° |
| 2026-05-06 15:29 | 56.88393 | -132.91806 | 529 ft | 106 kts | 179° |
| 2026-05-06 15:29 | 56.87635 | -132.91715 | 521 ft | 112 kts | 178° |
| 2026-05-06 15:30 | 56.86844 | -132.91587 | 503 ft | 114 kts | 175° |
| 2026-05-06 15:30 | 56.86052 | -132.91434 | 496 ft | 114 kts | 175° |
| 2026-05-06 15:30 | 56.85262 | -132.91281 | 495 ft | 114 kts | 175° |
| 2026-05-06 15:30 | 56.84485 | -132.91130 | 496 ft | 114 kts | 175° |
| 2026-05-06 15:31 | 56.83703 | -132.90978 | 496 ft | 114 kts | 175° |
| 2026-05-06 15:31 | 56.82905 | -132.90819 | 496 ft | 114 kts | 175° |
| 2026-05-06 15:31 | 56.82149 | -132.90719 | 528 ft | 102 kts | 192° |
| 2026-05-06 15:32 | 56.80939 | -132.91856 | 304 ft | 98 kts | 220° |
| 2026-05-06 15:32 | 56.80501 | -132.92873 | 171 ft | 106 kts | 242° |
| 2026-05-06 15:32 | 56.80242 | -132.94059 | 105 ft | 92 kts | 253° |
| 2026-05-06 15:32 | 56.80065 | -132.95017 | 103 ft | 68 kts | 250° |
| 2026-05-06 15:33 | 56.79980 | -132.95490 | 97 ft | 3 kts | 264° |
| 2026-05-06 15:33 | 56.79978 | -132.95512 | 97 ft | 0 kts | 240° |
| 2026-05-06 15:33 | 56.79976 | -132.95516 | 97 ft | 3 kts | 216° |
| 2026-05-06 15:33 | 56.79981 | -132.95433 | 97 ft | 13 kts | 66° |
| 2026-05-06 15:34 | 56.80004 | -132.95327 | 97 ft | 5 kts | 64° |
| 2026-05-06 15:34 | 56.80012 | -132.95292 | 97 ft | 2 kts | 68° |
| 2026-05-06 15:34 | 56.80016 | -132.95276 | 97 ft | 1 kts | 68° |
| 2026-05-06 15:34 | 56.80023 | -132.95246 | 97 ft | 4 kts | 68° |
| 2026-05-06 15:35 | 56.80036 | -132.95187 | 97 ft | 7 kts | 72° |
| 2026-05-06 15:35 | 56.80062 | -132.95038 | 97 ft | 19 kts | 71° |
| 2026-05-06 15:35 | 56.80118 | -132.94751 | 97 ft | 27 kts | 72° |
| 2026-05-06 15:35 | 56.80178 | -132.94435 | 97 ft | 25 kts | 70° |
| 2026-05-06 15:36 | 56.80229 | -132.94168 | 97 ft | 20 kts | 70° |
| 2026-05-06 15:36 | 56.80269 | -132.93952 | 97 ft | 13 kts | 71° |
| 2026-05-06 15:36 | 56.80299 | -132.93804 | 97 ft | 14 kts | 70° |
| 2026-05-06 15:36 | 56.80332 | -132.93634 | 97 ft | 14 kts | 70° |
| 2026-05-06 15:37 | 56.80367 | -132.93454 | 97 ft | 16 kts | 76° |
| 2026-05-06 15:37 | 56.80429 | -132.93368 | 97 ft | 11 kts | 345° |
| 2026-05-06 15:37 | 56.80447 | -132.93379 | 97 ft | 0 kts | 339° |
| 2026-05-06 15:37 | 56.80448 | -132.93379 | 97 ft | 0 kts | 339° |
| 2026-05-06 15:39 | 56.80448 | -132.93380 | 97 ft | 0 kts | 339° |
| 2026-05-06 15:39 | 56.80461 | -132.93387 | 97 ft | 3 kts | 342° |
| 2026-05-06 15:39 | 56.80491 | -132.93405 | 96 ft | 4 kts | 339° |
| 2026-05-06 15:40 | 56.80500 | -132.93413 | 97 ft | 2 kts | 324° |
| 2026-05-06 15:40 | 56.80521 | -132.93473 | 97 ft | 8 kts | 301° |
| 2026-05-06 15:40 | 56.80548 | -132.93509 | 97 ft | 3 kts | 40° |
| 2026-05-06 15:40 | 56.80557 | -132.93497 | 97 ft | 0 kts | 34° |